createdAt,value
2023-05-19T00:01:49.276Z,6.02
2023-05-19T00:04:16.152Z,6.04
2023-05-19T00:06:43.057Z,5.96
2023-05-19T00:09:10.277Z,5.98
2023-05-19T00:11:38.097Z,5.92
2023-05-19T00:14:07.183Z,5.87
2023-05-19T00:16:34.768Z,5.81
2023-05-19T00:19:03.078Z,5.80
2023-05-19T00:21:30.024Z,5.78
2023-05-19T00:23:56.901Z,5.73
2023-05-19T00:26:24.106Z,5.65
2023-05-19T00:28:51.104Z,5.69
2023-05-19T00:31:17.632Z,5.59
2023-05-19T00:33:44.328Z,5.65
2023-05-19T00:36:10.718Z,5.68
2023-05-19T00:38:37.678Z,5.79
2023-05-19T00:41:05.462Z,5.79
2023-05-19T00:43:32.362Z,5.83
2023-05-19T00:45:58.767Z,5.89
2023-05-19T00:48:26.061Z,5.92
2023-05-19T00:50:54.855Z,5.89
2023-05-19T00:53:24.408Z,5.89
2023-05-19T00:55:50.970Z,5.87
2023-05-19T00:58:19.007Z,5.84
2023-05-19T01:00:45.699Z,5.85
2023-05-19T01:03:12.400Z,5.85
2023-05-19T01:05:42.671Z,5.81
2023-05-19T01:08:09.242Z,5.75
2023-05-19T01:10:35.651Z,5.72
2023-05-19T01:13:03.618Z,5.62
2023-05-19T01:15:33.747Z,5.65
2023-05-19T01:18:28.439Z,5.62
2023-05-19T01:21:30.329Z,5.57
2023-05-19T01:24:22.669Z,5.57
2023-05-19T01:27:09.447Z,5.53
2023-05-19T01:30:05.493Z,5.49
2023-05-19T01:32:34.550Z,5.49
2023-05-19T01:35:01.485Z,5.47
2023-05-19T01:37:29.239Z,5.44
2023-05-19T01:39:56.050Z,5.41
2023-05-19T01:42:23.742Z,5.35
2023-05-19T01:44:51.482Z,5.41
2023-05-19T01:47:18.353Z,5.37
2023-05-19T01:49:44.741Z,5.40
2023-05-19T01:52:11.106Z,5.41
2023-05-19T01:54:37.478Z,5.37
2023-05-19T01:57:20.253Z,5.38
2023-05-19T02:00:16.266Z,5.37
2023-05-19T02:03:01.320Z,5.38
2023-05-19T02:05:39.867Z,5.35
2023-05-19T02:08:33.610Z,5.33
2023-05-19T02:11:25.865Z,5.22
2023-05-19T02:13:56.241Z,5.27
2023-05-19T02:16:28.491Z,5.16
2023-05-19T02:18:55.639Z,5.15
2023-05-19T02:21:22.078Z,5.15
2023-05-19T02:23:48.987Z,5.16
2023-05-19T02:26:15.386Z,5.10
2023-05-19T02:28:41.802Z,5.11
2023-05-19T02:31:08.178Z,5.09
2023-05-19T02:33:34.962Z,5.02
2023-05-19T02:36:01.325Z,4.99
2023-05-19T02:38:27.743Z,4.97
2023-05-19T02:40:54.137Z,4.98
2023-05-19T02:43:20.557Z,4.89
2023-05-19T02:45:46.952Z,4.89
2023-05-19T02:48:13.402Z,4.84
2023-05-19T02:50:39.787Z,4.78
2023-05-19T02:53:06.127Z,4.78
2023-05-19T02:55:32.490Z,4.76
2023-05-19T02:57:58.868Z,4.75
2023-05-19T03:00:25.230Z,4.79
2023-05-19T03:02:51.734Z,4.79
2023-05-19T03:05:18.270Z,4.74
2023-05-19T03:07:44.649Z,4.69
2023-05-19T03:10:11.120Z,4.67
2023-05-19T03:12:37.478Z,4.68
2023-05-19T03:15:04.119Z,4.62
2023-05-19T03:17:30.518Z,4.62
2023-05-19T03:19:56.927Z,4.66
2023-05-19T03:22:23.225Z,4.65
2023-05-19T03:24:49.618Z,4.61
2023-05-19T03:27:16.002Z,4.62
2023-05-19T03:29:42.339Z,4.64
2023-05-19T03:32:08.738Z,4.57
2023-05-19T03:34:35.154Z,4.58
2023-05-19T03:37:01.413Z,4.63
2023-05-19T03:39:27.737Z,4.56
2023-05-19T03:41:54.052Z,4.66
2023-05-19T03:44:20.423Z,4.68
2023-05-19T03:46:46.665Z,4.71
2023-05-19T03:49:13.052Z,4.66
2023-05-19T03:51:39.461Z,4.70
2023-05-19T03:54:05.775Z,4.72
2023-05-19T03:56:32.253Z,4.67
2023-05-19T03:58:58.594Z,4.71
2023-05-19T04:01:24.881Z,4.77
2023-05-19T04:03:51.253Z,4.73
2023-05-19T04:06:18.572Z,4.78
2023-05-19T04:08:44.937Z,4.80
2023-05-19T04:11:11.324Z,4.84
2023-05-19T04:13:37.714Z,4.87
2023-05-19T04:16:04.581Z,4.89
2023-05-19T04:18:31.090Z,4.95
2023-05-19T04:20:57.466Z,4.99
2023-05-19T04:23:23.740Z,5.10
2023-05-19T04:25:50.159Z,5.14
2023-05-19T04:28:16.624Z,5.20
2023-05-19T04:30:43.082Z,5.25
2023-05-19T04:33:09.466Z,5.35
2023-05-19T04:35:35.894Z,5.44
2023-05-19T04:38:02.178Z,5.55
2023-05-19T04:40:28.529Z,5.54
2023-05-19T04:42:54.909Z,5.76
2023-05-19T04:45:21.289Z,5.84
2023-05-19T04:47:47.663Z,5.96
2023-05-19T04:50:14.178Z,6.10
2023-05-19T04:52:40.946Z,6.21
2023-05-19T04:55:07.687Z,6.32
2023-05-19T04:57:34.091Z,6.42
2023-05-19T05:00:00.513Z,6.56
2023-05-19T05:02:26.987Z,6.70
2023-05-19T05:04:53.692Z,6.87
2023-05-19T05:07:23.713Z,7.02
2023-05-19T05:09:50.441Z,7.13
2023-05-19T05:12:18.304Z,7.28
2023-05-19T05:14:45.064Z,7.35
2023-05-19T05:17:12.410Z,7.61
2023-05-19T05:19:39.106Z,7.90
2023-05-19T05:22:06.001Z,8.13
2023-05-19T05:24:32.600Z,8.40
2023-05-19T05:26:59.358Z,8.75
2023-05-19T05:29:25.731Z,9.10
2023-05-19T05:31:52.093Z,9.73
2023-05-19T05:34:18.520Z,10.51
2023-05-19T05:36:44.849Z,11.36
2023-05-19T05:39:11.209Z,12.28
2023-05-19T05:41:37.593Z,13.23
2023-05-19T05:44:04.542Z,14.10
2023-05-19T05:48:59.032Z,15.30
2023-05-19T05:51:25.652Z,15.76
2023-05-19T05:53:54.335Z,16.44
2023-05-19T05:56:21.608Z,17.15
2023-05-19T05:58:48.104Z,17.87
2023-05-19T06:01:14.559Z,18.46
2023-05-19T06:03:42.228Z,19.15
2023-05-19T06:06:08.631Z,19.87
2023-05-19T06:08:34.978Z,20.57
2023-05-19T06:11:01.330Z,21.04
2023-05-19T06:13:27.653Z,21.53
2023-05-19T06:15:54.031Z,21.78
2023-05-19T06:18:20.407Z,21.95
2023-05-19T06:20:46.755Z,21.98
2023-05-19T06:23:13.099Z,22.00
2023-05-19T06:25:39.452Z,22.24
2023-05-19T06:28:05.791Z,22.39
2023-05-19T06:30:32.333Z,22.40
2023-05-19T06:32:58.984Z,22.09
2023-05-19T06:35:25.441Z,22.00
2023-05-19T06:37:51.808Z,22.12
2023-05-19T06:40:18.180Z,21.95
2023-05-19T06:42:44.499Z,21.99
2023-05-19T06:45:11.019Z,22.03
2023-05-19T06:47:37.412Z,22.35
2023-05-19T06:50:04.224Z,23.02
2023-05-19T06:52:30.626Z,23.66
2023-05-19T06:54:57.003Z,24.03
2023-05-19T06:57:23.484Z,24.36
2023-05-19T06:59:49.854Z,24.74
2023-05-19T07:02:16.256Z,25.29
2023-05-19T07:04:42.820Z,25.77
2023-05-19T07:07:09.156Z,25.82
2023-05-19T07:09:35.611Z,25.94
2023-05-19T07:12:02.212Z,26.06
2023-05-19T07:14:28.609Z,26.49
2023-05-19T07:16:55.132Z,26.82
2023-05-19T07:19:21.664Z,26.45
2023-05-19T07:21:48.117Z,26.33
2023-05-19T07:24:14.470Z,26.24
2023-05-19T07:26:41.652Z,26.40
2023-05-19T07:29:08.023Z,25.98
2023-05-19T07:31:34.391Z,25.27
2023-05-19T07:34:00.792Z,25.30
2023-05-19T07:36:27.217Z,25.45
2023-05-19T07:38:53.622Z,25.78
2023-05-19T07:41:19.997Z,25.92
2023-05-19T07:43:46.345Z,26.06
2023-05-19T07:46:12.750Z,26.39
2023-05-19T07:48:39.129Z,26.63
2023-05-19T07:51:05.515Z,26.45
2023-05-19T07:53:31.939Z,26.16
2023-05-19T07:55:58.827Z,26.16
2023-05-19T07:58:25.317Z,26.56
2023-05-19T08:00:51.681Z,26.82
2023-05-19T08:03:18.377Z,26.58
2023-05-19T08:05:44.947Z,26.64
2023-05-19T08:08:11.302Z,26.02
2023-05-19T08:10:37.747Z,26.06
2023-05-19T08:13:04.494Z,26.10
2023-05-19T08:15:31.047Z,25.66
2023-05-19T08:17:57.514Z,25.08
2023-05-19T08:20:24.004Z,25.04
2023-05-19T08:22:50.416Z,25.26
2023-05-19T08:25:16.962Z,25.50
2023-05-19T08:27:43.331Z,25.51
2023-05-19T08:30:10.234Z,24.81
2023-05-19T08:32:36.636Z,24.58
2023-05-19T08:35:03.205Z,24.37
2023-05-19T08:37:30.384Z,24.36
2023-05-19T08:39:57.809Z,24.20
2023-05-19T08:42:24.142Z,24.03
2023-05-19T08:44:50.555Z,23.83
2023-05-19T08:47:17.465Z,23.58
2023-05-19T08:49:45.677Z,23.39
2023-05-19T08:52:43.754Z,23.18
2023-05-19T08:55:39.632Z,22.75
2023-05-19T08:58:06.396Z,22.26
2023-05-19T09:00:33.560Z,21.76
2023-05-19T09:03:16.934Z,21.42
2023-05-19T09:05:45.571Z,21.23
2023-05-19T09:08:12.608Z,21.27
2023-05-19T09:10:39.284Z,21.52
2023-05-19T09:13:05.903Z,21.80
2023-05-19T09:15:32.703Z,21.99
2023-05-19T09:18:10.900Z,22.01
2023-05-19T09:20:39.623Z,21.59
2023-05-19T09:23:06.121Z,21.34
2023-05-19T09:25:32.701Z,21.56
2023-05-19T09:27:59.256Z,21.69
2023-05-19T09:30:25.737Z,21.35
2023-05-19T09:32:52.337Z,20.96
2023-05-19T09:35:18.792Z,20.80
2023-05-19T09:37:45.336Z,20.86
2023-05-19T09:40:15.086Z,20.77
2023-05-19T09:42:42.105Z,20.51
2023-05-19T09:45:08.974Z,20.51
2023-05-19T09:47:35.985Z,20.55
2023-05-19T09:50:04.164Z,20.30
2023-05-19T09:52:30.615Z,19.96
2023-05-19T09:54:57.140Z,19.36
2023-05-19T09:57:26.850Z,19.57
2023-05-19T09:59:55.114Z,19.51
2023-05-19T10:02:23.000Z,19.57
2023-05-19T10:04:51.054Z,19.79
2023-05-19T10:07:18.932Z,19.96
2023-05-19T10:09:46.023Z,19.88
2023-05-19T10:12:13.251Z,19.93
2023-05-19T10:14:40.626Z,20.01
2023-05-19T10:17:08.307Z,20.26
2023-05-19T10:19:35.983Z,20.20
2023-05-19T10:22:02.401Z,20.08
2023-05-19T10:24:28.779Z,20.04
2023-05-19T10:27:01.138Z,20.05
2023-05-19T10:29:30.102Z,20.15
2023-05-19T10:32:01.249Z,20.46
2023-05-19T10:34:47.756Z,20.98
2023-05-19T10:37:42.338Z,21.39
2023-05-19T10:40:29.212Z,21.45
2023-05-19T10:43:15.917Z,21.47
2023-05-19T10:45:51.158Z,21.04
2023-05-19T10:48:20.355Z,20.83
2023-05-19T10:50:47.282Z,20.97
2023-05-19T10:53:17.983Z,20.58
2023-05-19T10:55:46.544Z,20.41
2023-05-19T10:58:12.963Z,20.36
2023-05-19T11:00:39.888Z,20.55
2023-05-19T11:03:16.451Z,20.76
2023-05-19T11:05:43.046Z,20.81
2023-05-19T11:08:09.434Z,21.02
2023-05-19T11:10:35.772Z,21.22
2023-05-19T11:13:06.570Z,21.40
2023-05-19T11:15:36.358Z,21.60
2023-05-19T11:18:04.407Z,21.65
2023-05-19T11:20:31.907Z,21.37
2023-05-19T11:23:08.387Z,21.09
2023-05-19T11:25:51.811Z,21.26
2023-05-19T11:28:20.645Z,21.18
2023-05-19T11:30:49.036Z,21.13
2023-05-19T11:33:15.828Z,21.40
2023-05-19T11:35:43.509Z,21.54
2023-05-19T11:38:11.046Z,21.68
2023-05-19T11:40:37.554Z,21.67
2023-05-19T11:43:03.899Z,21.38
2023-05-19T11:45:32.210Z,21.47
2023-05-19T11:48:02.772Z,21.37
2023-05-19T11:50:31.727Z,21.62
2023-05-19T11:53:00.350Z,21.77
2023-05-19T11:55:27.426Z,22.00
2023-05-19T11:58:03.879Z,21.98
2023-05-19T12:00:42.113Z,21.68
2023-05-19T12:03:09.414Z,21.45
2023-05-19T12:05:41.755Z,21.64
2023-05-19T12:08:09.601Z,21.75
2023-05-19T12:10:36.676Z,21.76
2023-05-19T12:13:03.345Z,21.79
2023-05-19T12:15:31.543Z,22.03
2023-05-19T12:18:02.378Z,22.01
2023-05-19T12:20:30.421Z,21.49
2023-05-19T12:22:57.254Z,21.26
2023-05-19T12:25:24.341Z,21.35
2023-05-19T12:27:51.207Z,21.47
2023-05-19T12:30:17.586Z,21.38
2023-05-19T12:32:44.201Z,21.47
2023-05-19T12:35:10.611Z,21.01
2023-05-19T12:37:41.583Z,21.36
2023-05-19T12:40:09.776Z,21.47
2023-05-19T12:42:36.314Z,21.56
2023-05-19T12:45:04.084Z,21.61
2023-05-19T12:47:32.182Z,21.18
2023-05-19T12:50:09.335Z,21.12
2023-05-19T12:52:50.065Z,21.28
2023-05-19T12:55:17.135Z,21.11
2023-05-19T12:57:45.119Z,21.45
2023-05-19T13:00:15.419Z,21.67
2023-05-19T13:03:07.124Z,21.89
2023-05-19T13:05:38.253Z,22.18
2023-05-19T13:08:09.248Z,22.29
2023-05-19T13:10:36.975Z,22.26
2023-05-19T13:13:03.897Z,22.27
2023-05-19T13:15:32.130Z,22.03
2023-05-19T13:18:00.148Z,21.93
2023-05-19T13:20:28.536Z,21.25
2023-05-19T13:22:55.669Z,21.31
2023-05-19T13:25:21.994Z,21.50
2023-05-19T13:27:49.002Z,21.65
2023-05-19T13:30:16.111Z,21.76
2023-05-19T13:32:42.454Z,21.86
2023-05-19T13:35:09.841Z,21.60
2023-05-19T13:37:36.367Z,21.43
2023-05-19T13:40:03.061Z,21.43
2023-05-19T13:42:29.472Z,21.54
2023-05-19T13:44:55.883Z,21.82
2023-05-19T13:47:26.034Z,21.88
2023-05-19T13:49:52.936Z,21.93
2023-05-19T13:52:20.760Z,22.03
2023-05-19T13:54:47.748Z,22.03
2023-05-19T13:57:15.301Z,21.97
2023-05-19T13:59:57.134Z,22.12
2023-05-19T14:02:27.911Z,22.04
2023-05-19T14:04:54.447Z,22.21
2023-05-19T14:07:20.843Z,21.84
2023-05-19T14:09:47.228Z,21.70
2023-05-19T14:12:13.645Z,21.51
2023-05-19T14:14:40.049Z,21.23
2023-05-19T14:17:06.494Z,20.90
2023-05-19T14:19:32.926Z,20.73
2023-05-19T14:21:59.294Z,20.85
2023-05-19T14:24:25.765Z,21.08
2023-05-19T14:26:52.120Z,21.41
2023-05-19T14:29:18.668Z,21.44
2023-05-19T14:31:45.049Z,21.12
2023-05-19T14:34:11.519Z,21.05
2023-05-19T14:36:37.863Z,20.92
2023-05-19T14:39:04.241Z,21.08
2023-05-19T14:41:30.584Z,21.34
2023-05-19T14:43:56.927Z,21.58
2023-05-19T14:46:23.410Z,21.82
2023-05-19T14:48:49.848Z,21.88
2023-05-19T14:51:16.199Z,22.08
2023-05-19T14:53:42.556Z,22.06
2023-05-19T14:56:08.892Z,21.92
2023-05-19T14:58:35.222Z,21.81
2023-05-19T15:01:01.649Z,21.79
2023-05-19T15:03:28.109Z,21.70
2023-05-19T15:05:54.548Z,21.53
2023-05-19T15:08:20.922Z,21.44
2023-05-19T15:10:49.193Z,21.30
2023-05-19T15:13:16.155Z,21.22
2023-05-19T15:15:42.513Z,21.16
2023-05-19T15:18:08.909Z,21.11
2023-05-19T15:20:35.511Z,20.99
2023-05-19T15:23:02.110Z,21.00
2023-05-19T15:25:28.517Z,21.01
2023-05-19T15:27:54.873Z,20.63
2023-05-19T15:30:21.234Z,20.44
2023-05-19T15:32:47.650Z,20.60
2023-05-19T15:35:14.133Z,20.57
2023-05-19T15:37:40.514Z,20.44
2023-05-19T15:40:09.156Z,20.29
2023-05-19T15:42:35.506Z,20.19
2023-05-19T15:45:02.032Z,20.16
2023-05-19T15:47:28.389Z,20.29
2023-05-19T15:49:54.822Z,20.43
2023-05-19T15:52:21.225Z,20.32
2023-05-19T15:54:47.581Z,20.44
2023-05-19T15:57:13.966Z,20.49
2023-05-19T15:59:40.324Z,20.52
2023-05-19T16:02:07.159Z,20.49
2023-05-19T16:04:33.608Z,20.33
2023-05-19T16:06:59.961Z,20.15
2023-05-19T16:09:26.367Z,20.15
2023-05-19T16:11:52.700Z,20.12
2023-05-19T16:14:19.048Z,20.03
2023-05-19T16:16:45.411Z,19.80
2023-05-19T16:19:11.897Z,19.81
2023-05-19T16:21:38.282Z,19.59
2023-05-19T16:24:04.869Z,19.60
2023-05-19T16:26:31.232Z,19.77
2023-05-19T16:28:57.578Z,19.78
2023-05-19T16:31:23.969Z,19.84
2023-05-19T16:33:50.380Z,19.90
2023-05-19T16:36:16.835Z,19.84
2023-05-19T16:38:43.235Z,20.03
2023-05-19T16:41:12.695Z,19.92
2023-05-19T16:43:39.126Z,19.48
2023-05-19T16:46:05.661Z,19.44
2023-05-19T16:48:32.122Z,19.35
2023-05-19T16:50:58.481Z,19.27
2023-05-19T16:53:24.825Z,19.22
2023-05-19T16:55:51.190Z,19.31
2023-05-19T16:58:17.585Z,19.33
2023-05-19T17:00:43.937Z,19.42
2023-05-19T17:03:10.347Z,19.32
2023-05-19T17:05:36.862Z,19.37
2023-05-19T17:08:03.300Z,19.46
2023-05-19T17:10:29.640Z,19.37
2023-05-19T17:12:56.030Z,19.12
2023-05-19T17:15:22.382Z,19.04
2023-05-19T17:17:48.801Z,18.91
2023-05-19T17:20:15.292Z,18.85
2023-05-19T17:22:41.668Z,18.82
2023-05-19T17:25:08.641Z,18.70
2023-05-19T17:27:35.070Z,18.65
2023-05-19T17:30:01.732Z,18.66
2023-05-19T17:32:28.305Z,18.63
2023-05-19T17:34:54.827Z,18.56
2023-05-19T17:37:21.265Z,18.53
2023-05-19T17:39:47.597Z,18.49
2023-05-19T17:42:13.997Z,18.44
2023-05-19T17:44:40.378Z,18.48
2023-05-19T17:47:06.773Z,18.48
2023-05-19T17:49:33.476Z,18.44
2023-05-19T17:52:00.212Z,18.50
2023-05-19T17:54:26.843Z,18.48
2023-05-19T17:56:55.386Z,18.50
2023-05-19T17:59:22.110Z,18.59
2023-05-19T18:01:48.699Z,18.47
2023-05-19T18:04:16.167Z,18.40
2023-05-19T18:06:44.344Z,18.40
2023-05-19T18:09:12.921Z,18.34
2023-05-19T18:11:39.292Z,18.13
2023-05-19T18:14:05.701Z,18.05
2023-05-19T18:16:32.982Z,18.00
2023-05-19T18:18:59.437Z,17.88
2023-05-19T18:21:25.827Z,17.86
2023-05-19T18:23:52.194Z,17.75
2023-05-19T18:26:18.627Z,17.68
2023-05-19T18:28:45.084Z,17.56
2023-05-19T18:31:11.477Z,17.41
2023-05-19T18:33:37.862Z,17.34
2023-05-19T18:36:04.424Z,17.18
2023-05-19T18:38:30.778Z,17.08
2023-05-19T18:40:57.308Z,16.90
2023-05-19T18:43:23.667Z,16.70
2023-05-19T18:45:50.125Z,16.48
2023-05-19T18:48:16.540Z,16.31
2023-05-19T18:50:42.912Z,16.17
2023-05-19T18:53:09.354Z,16.09
2023-05-19T18:55:38.277Z,15.97
2023-05-19T18:58:05.006Z,15.81
2023-05-19T19:00:31.578Z,15.69
2023-05-19T19:02:58.282Z,15.61
2023-05-19T19:05:24.743Z,15.46
2023-05-19T19:07:51.107Z,15.32
2023-05-19T19:10:17.578Z,15.21
2023-05-19T19:12:43.948Z,15.12
2023-05-19T19:15:11.163Z,15.09
2023-05-19T19:17:38.248Z,15.00
2023-05-19T19:20:05.118Z,14.85
2023-05-19T19:22:31.613Z,14.79
2023-05-19T19:24:57.974Z,14.69
2023-05-19T19:27:24.375Z,14.65
2023-05-19T19:29:50.732Z,14.58
2023-05-19T19:32:17.253Z,14.44
2023-05-19T19:34:43.617Z,14.39
2023-05-19T19:37:10.058Z,14.27
2023-05-19T19:39:36.864Z,14.17
2023-05-19T19:42:03.354Z,14.03
2023-05-19T19:44:29.689Z,13.89
2023-05-19T19:46:56.130Z,13.85
2023-05-19T19:49:22.542Z,13.76
2023-05-19T19:51:48.950Z,13.70
2023-05-19T19:54:15.351Z,13.64
2023-05-19T19:56:41.710Z,13.56
2023-05-19T19:59:08.061Z,13.49
2023-05-19T20:01:34.474Z,13.43
2023-05-19T20:04:01.120Z,13.29
2023-05-19T20:06:27.577Z,13.23
2023-05-19T20:08:55.159Z,13.21
2023-05-19T20:11:21.551Z,13.12
2023-05-19T20:13:47.918Z,12.97
2023-05-19T20:16:14.309Z,12.95
2023-05-19T20:18:40.712Z,12.76
2023-05-19T20:21:07.069Z,12.72
2023-05-19T20:23:33.513Z,12.74
2023-05-19T20:26:10.876Z,12.78
2023-05-19T20:28:38.672Z,12.78
2023-05-19T20:31:05.750Z,12.80
2023-05-19T20:33:32.206Z,12.71
2023-05-19T20:35:58.580Z,12.77
2023-05-19T20:38:24.947Z,12.75
2023-05-19T20:40:51.397Z,12.70
2023-05-19T20:43:17.835Z,12.62
2023-05-19T20:45:44.517Z,12.58
2023-05-19T20:48:11.356Z,12.66
2023-05-19T20:50:39.247Z,12.55
2023-05-19T20:53:05.622Z,12.55
2023-05-19T20:55:32.204Z,12.57
2023-05-19T20:57:58.675Z,12.56
2023-05-19T21:00:25.041Z,12.46
2023-05-19T21:02:51.472Z,12.40
2023-05-19T21:05:17.951Z,12.47
2023-05-19T21:07:44.369Z,12.42
2023-05-19T21:10:11.251Z,12.44
2023-05-19T21:12:37.716Z,12.48
2023-05-19T21:15:04.360Z,12.48
2023-05-19T21:17:30.759Z,12.42
2023-05-19T21:19:57.276Z,12.43
2023-05-19T21:22:24.617Z,12.39
2023-05-19T21:24:50.976Z,12.39
2023-05-19T21:27:17.389Z,12.41
2023-05-19T21:29:43.755Z,12.33
2023-05-19T21:32:10.198Z,12.34
2023-05-19T21:34:36.588Z,12.23
2023-05-19T21:37:03.035Z,12.18
2023-05-19T21:39:29.385Z,12.14
2023-05-19T21:41:55.725Z,12.22
2023-05-19T21:44:22.112Z,12.18
2023-05-19T21:46:48.500Z,12.12
2023-05-19T21:49:14.904Z,12.09
2023-05-19T21:51:41.255Z,11.95
2023-05-19T21:54:07.658Z,11.98
2023-05-19T21:56:34.024Z,11.96
2023-05-19T21:59:00.375Z,11.92
2023-05-19T22:01:26.757Z,11.94
2023-05-19T22:03:53.206Z,11.83
2023-05-19T22:06:19.604Z,11.82
2023-05-19T22:08:45.937Z,11.77
2023-05-19T22:11:12.332Z,11.78
2023-05-19T22:13:38.685Z,11.67
2023-05-19T22:16:05.322Z,11.72
2023-05-19T22:18:31.730Z,11.58
2023-05-19T22:20:58.066Z,11.58
2023-05-19T22:23:24.432Z,11.54
2023-05-19T22:25:50.808Z,11.51
2023-05-19T22:28:17.219Z,11.49
2023-05-19T22:30:43.645Z,11.42
2023-05-19T22:33:11.724Z,11.37
2023-05-19T22:35:38.521Z,11.36
2023-05-19T22:38:04.920Z,11.29
2023-05-19T22:40:31.496Z,11.29
2023-05-19T22:42:58.044Z,11.27
2023-05-19T22:45:24.454Z,11.10
2023-05-19T22:47:50.951Z,11.12
2023-05-19T22:50:17.450Z,11.03
2023-05-19T22:52:43.829Z,11.02
2023-05-19T22:55:10.183Z,11.01
2023-05-19T22:57:36.542Z,11.01
2023-05-19T23:00:03.449Z,10.94
2023-05-19T23:02:29.906Z,10.90
2023-05-19T23:04:56.297Z,10.90
2023-05-19T23:07:22.640Z,10.87
2023-05-19T23:09:49.017Z,10.88
2023-05-19T23:12:15.386Z,10.75
2023-05-19T23:14:41.802Z,10.79
2023-05-19T23:17:08.258Z,10.74
2023-05-19T23:19:34.650Z,10.71
2023-05-19T23:22:01.014Z,10.65
2023-05-19T23:24:27.399Z,10.63
2023-05-19T23:26:54.170Z,10.58
2023-05-19T23:29:20.540Z,10.53
2023-05-19T23:31:46.966Z,10.41
2023-05-19T23:34:13.350Z,10.38
2023-05-19T23:36:39.806Z,10.30
2023-05-19T23:39:06.194Z,10.20
2023-05-19T23:41:32.662Z,10.15
2023-05-19T23:43:59.041Z,10.17
2023-05-19T23:46:25.601Z,10.17
2023-05-19T23:48:52.013Z,10.15
2023-05-19T23:51:18.392Z,10.07
2023-05-19T23:53:44.767Z,10.11
2023-05-19T23:56:11.120Z,10.06
2023-05-19T23:58:37.475Z,10.10
